.
WxDataArchive / Data Records for 2011-01-05
2011-01-04 January 2011 2011-01-06

Data Records for Wednesday, 05 January 2011

Time	Temp	Chill	HIndex	Humid	Dewpt	 Wind 	HiWind	WindDir	Rain 	Barom 
-----	----	-----	------	-----	-----	------	------	-------	-----	----- 
00:00	17.8	17.8	17.8	73	10.6	0	2	248	0.00	30.092 
00:05	17.8	17.8	17.8	73	10.6	0	2	248	0.00	30.092 
00:10	17.7	17.7	17.7	74	10.8	0	1	248	0.00	30.092 
00:15	17.5	17.5	17.5	74	10.7	0	1	248	0.00	30.092 
00:20	17.5	17.5	17.5	74	10.7	0	2	248	0.00	30.092 
00:25	17.3	17.3	17.3	74	10.5	0	2	248	0.00	30.092 
00:30	17.3	17.3	17.3	74	10.5	0	2	248	0.00	30.091 
00:35	17.3	17.3	17.3	74	10.5	0	3	248	0.00	30.091 
00:40	17.3	17.3	17.3	74	10.5	0	1	248	0.00	30.091 
00:45	17.2	17.2	17.2	74	10.4	0	2	248	0.00	30.087 
00:50	17.2	17.2	17.2	74	10.4	0	2	248	0.00	30.087 
00:55	17.2	17.2	17.2	74	10.4	0	1	248	0.00	30.087 
01:00	17.0	17.0	17.0	75	10.5	0	1	248	0.00	30.085 
01:05	16.9	16.9	16.9	75	10.4	0	2	248	0.00	30.085 
01:10	16.9	16.9	16.9	75	10.4	0	0	---	0.00	30.085 
01:15	16.7	16.7	16.7	75	10.2	0	1	248	0.00	30.086 
01:20	16.7	16.7	16.7	75	10.2	0	1	248	0.00	30.086 
01:25	16.7	16.7	16.7	75	10.2	0	2	248	0.00	30.086 
01:30	16.5	16.5	16.5	75	10.0	0	1	248	0.00	30.085 
01:35	16.5	16.5	16.5	76	10.3	0	0	---	0.00	30.085 
01:40	16.4	16.4	16.4	76	10.2	0	1	248	0.00	30.085 
01:45	16.4	16.4	16.4	76	10.2	0	0	---	0.00	30.080 
01:50	16.2	16.2	16.2	76	10.0	0	2	248	0.00	30.080 
01:55	16.2	16.2	16.2	76	10.0	0	0	---	0.00	30.080 
02:00	16.1	16.1	16.1	76	9.9	0	1	248	0.00	30.082 
02:05	16.1	16.1	16.1	76	9.9	0	2	248	0.00	30.082 
02:10	15.9	15.9	15.9	77	10.0	0	1	248	0.00	30.082 
02:15	15.9	15.9	15.9	77	10.0	0	2	248	0.00	30.085 
02:20	15.9	15.9	15.9	77	10.0	0	2	248	0.00	30.085 
02:25	15.9	15.9	15.9	77	10.0	0	2	248	0.00	30.085 
02:30	15.9	15.9	15.9	77	10.0	0	2	248	0.00	30.084 
02:35	15.7	15.7	15.7	77	9.8	0	1	248	0.00	30.084 
02:40	15.7	15.7	15.7	77	9.8	0	2	248	0.00	30.084 
02:45	15.7	15.7	15.7	77	9.8	0	1	248	0.00	30.086 
02:50	15.7	15.7	15.7	77	9.8	0	2	248	0.00	30.086 
02:55	15.6	15.6	15.6	77	9.7	0	1	248	0.00	30.086 
03:00	15.6	15.6	15.6	77	9.7	0	1	248	0.00	30.086 
03:05	15.4	15.4	15.4	78	9.8	0	1	248	0.00	30.086 
03:10	15.4	15.4	15.4	78	9.8	0	2	248	0.00	30.086 
03:15	15.4	15.4	15.4	78	9.8	0	1	248	0.00	30.086 
03:20	15.2	15.2	15.2	78	9.6	0	1	248	0.00	30.086 
03:25	15.2	15.2	15.2	78	9.6	0	1	248	0.00	30.086 
03:30	15.1	15.1	15.1	78	9.5	0	1	248	0.00	30.086 
03:35	15.1	15.1	15.1	78	9.5	0	0	---	0.00	30.086 
03:40	14.9	14.9	14.9	78	9.3	0	0	---	0.00	30.086 
03:45	14.9	14.9	14.9	78	9.3	0	0	---	0.00	30.074 
03:50	14.8	14.8	14.8	79	9.5	0	0	---	0.00	30.074 
03:55	14.8	14.8	14.8	79	9.5	0	0	---	0.00	30.074 
04:00	14.6	14.6	14.6	79	9.3	0	0	---	0.00	30.069 
04:05	14.6	14.6	14.6	79	9.3	0	0	---	0.00	30.069 
04:10	14.4	14.4	14.4	79	9.1	0	0	---	0.00	30.069 
04:15	14.3	14.3	14.3	79	9.0	0	0	---	0.00	30.067 
04:20	14.1	14.1	14.1	79	8.8	0	0	---	0.00	30.067 
04:25	14.1	14.1	14.1	79	8.8	0	1	248	0.00	30.067 
04:30	14.0	14.0	14.0	79	8.7	0	0	---	0.00	30.073 
04:35	14.0	14.0	14.0	80	9.0	0	0	---	0.00	30.073 
04:40	14.0	14.0	14.0	80	9.0	0	1	248	0.00	30.073 
04:45	14.0	14.0	14.0	80	9.0	0	1	248	0.00	30.077 
04:50	14.1	14.1	14.1	80	9.1	0	2	248	0.00	30.077 
04:55	14.1	14.1	14.1	80	9.1	0	1	248	0.00	30.077 
05:00	14.3	14.3	14.3	81	9.6	1	2	248	0.00	30.086 
05:05	14.4	14.4	14.4	81	9.7	1	2	248	0.00	30.086 
05:10	14.4	14.4	14.4	80	9.4	0	1	248	0.00	30.086 
05:15	14.6	14.6	14.6	80	9.6	0	2	248	0.00	30.093 
05:20	14.6	14.6	14.6	80	9.6	0	2	248	0.00	30.093 
05:25	14.6	14.6	14.6	80	9.6	0	2	248	0.00	30.093 
05:30	14.4	14.4	14.4	80	9.4	0	2	248	0.00	30.082 
05:35	14.4	14.4	14.4	80	9.4	0	1	248	0.00	30.082 
05:40	14.4	14.4	14.4	80	9.4	0	0	---	0.00	30.082 
05:45	14.3	14.3	14.3	80	9.3	0	0	---	0.00	30.065 
05:50	14.3	14.3	14.3	80	9.3	0	0	---	0.00	30.065 
05:55	14.1	14.1	14.1	80	9.1	0	0	---	0.00	30.065 
06:00	14.1	14.1	14.1	80	9.1	0	0	---	0.00	30.059 
06:05	14.1	14.1	14.1	80	9.1	0	0	---	0.00	30.059 
06:10	14.0	14.0	14.0	80	9.0	0	0	---	0.00	30.059 
06:15	14.0	14.0	14.0	80	9.0	0	0	---	0.00	30.060 
06:20	13.8	13.8	13.8	80	8.8	0	1	248	0.00	30.060 
06:25	13.8	13.8	13.8	80	8.8	0	0	---	0.00	30.060 
06:30	13.8	13.8	13.8	80	8.8	0	0	---	0.00	30.065 
06:35	13.8	13.8	13.8	81	9.1	0	1	248	0.00	30.065 
06:40	13.8	13.8	13.8	81	9.1	0	1	248	0.00	30.065 
06:45	14.0	14.0	14.0	81	9.3	0	2	248	0.00	30.076 
06:50	14.0	14.0	14.0	81	9.3	0	1	248	0.00	30.076 
06:55	14.0	14.0	14.0	81	9.3	0	3	248	0.00	30.076 
07:00	14.0	14.0	14.0	81	9.3	0	2	248	0.00	30.081 
07:05	14.1	14.1	14.1	81	9.4	0	2	248	0.00	30.081 
07:10	14.0	14.0	14.0	81	9.3	0	2	248	0.00	30.081 
07:15	14.0	14.0	14.0	81	9.3	0	1	248	0.00	30.081 
07:20	14.0	14.0	14.0	81	9.3	0	1	248	0.00	30.081 
07:25	14.1	14.1	14.1	81	9.4	0	2	248	0.00	30.081 
07:30	14.1	14.1	14.1	81	9.4	0	2	248	0.00	30.080 
07:35	14.1	14.1	14.1	80	9.1	0	2	248	0.00	30.080 
07:40	14.1	14.1	14.1	80	9.1	0	0	---	0.00	30.080 
07:45	14.0	14.0	14.0	80	9.0	0	1	248	0.00	30.077 
07:50	14.0	14.0	14.0	80	9.0	0	1	248	0.00	30.077 
07:55	14.0	14.0	14.0	80	9.0	0	1	248	0.00	30.077 
08:00	14.0	14.0	14.0	80	9.0	0	1	248	0.00	30.070 
08:05	14.0	14.0	14.0	80	9.0	0	0	---	0.00	30.070 
08:10	14.0	14.0	14.0	80	9.0	0	0	---	0.00	30.070 
08:15	14.0	14.0	14.0	80	9.0	0	0	---	0.00	30.075 
08:20	13.8	13.8	13.8	79	8.5	0	0	---	0.00	30.075 
08:25	13.8	13.8	13.8	79	8.5	0	1	248	0.00	30.075 
08:30	13.8	13.8	13.8	79	8.5	0	0	---	0.00	30.068 
08:35	13.8	13.8	13.8	79	8.5	0	0	---	0.00	30.068 
08:40	13.8	13.8	13.8	79	8.5	0	0	---	0.00	30.068 
08:45	13.8	13.8	13.8	79	8.5	0	0	---	0.00	30.069 
08:50	13.8	13.8	13.8	79	8.5	0	0	---	0.00	30.069 
08:55	13.8	13.8	13.8	79	8.5	0	0	---	0.00	30.069 
09:00	13.8	13.8	13.8	79	8.5	0	1	248	0.00	30.072 
09:05	13.8	13.8	13.8	79	8.5	0	1	248	0.00	30.072 
09:10	13.8	13.8	13.8	79	8.5	0	0	---	0.00	30.072 
09:15	14.0	14.0	14.0	79	8.7	0	1	248	0.00	30.066 
09:20	14.0	14.0	14.0	79	8.7	0	0	---	0.00	30.066 
09:25	14.1	14.1	14.1	79	8.8	0	0	---	0.00	30.066 
09:30	14.4	14.4	14.4	79	9.1	0	1	202	0.00	30.065 
09:35	14.8	14.8	14.8	79	9.5	0	1	248	0.00	30.065 
09:40	15.1	15.1	15.1	78	9.5	0	2	248	0.00	30.065 
09:45	15.4	15.4	15.4	78	9.8	0	2	248	0.00	30.068 
09:50	15.7	15.7	15.7	77	9.8	0	1	248	0.00	30.068 
09:55	16.1	16.1	16.1	76	9.9	0	2	248	0.00	30.068 
10:00	16.4	16.4	16.4	75	9.9	0	2	248	0.00	30.066 
10:05	16.7	16.7	16.7	75	10.2	0	3	248	0.00	30.066 
10:10	16.9	16.9	16.9	74	10.1	0	2	338	0.00	30.066 
10:15	16.9	16.9	16.9	73	9.8	1	4	248	0.00	30.064 
10:20	17.2	17.2	17.2	73	10.1	0	1	248	0.00	30.064 
10:25	17.5	17.5	17.5	73	10.3	0	1	248	0.00	30.064 
10:30	17.8	17.8	17.8	73	10.6	0	2	248	0.00	30.051 
10:35	18.0	18.0	18.0	72	10.5	0	1	202	0.00	30.051 
10:40	18.1	18.1	18.1	71	10.3	0	2	248	0.00	30.051 
10:45	18.3	18.3	18.3	71	10.5	0	2	248	0.00	30.048 
10:50	18.4	18.4	18.4	70	10.3	0	3	248	0.00	30.048 
10:55	18.9	18.9	18.9	70	10.8	0	1	248	0.00	30.048 
11:00	19.1	19.1	19.1	69	10.6	0	2	248	0.00	30.045 
11:05	19.2	19.2	19.2	68	10.4	0	4	248	0.00	30.045 
11:10	19.5	19.5	19.5	68	10.7	0	1	248	0.00	30.045 
11:15	19.9	19.9	19.9	67	10.7	0	2	248	0.00	30.045 
11:20	20.2	20.2	20.2	66	10.7	1	2	248	0.00	30.045 
11:25	20.5	20.5	20.5	65	10.6	1	3	248	0.00	30.045 
11:30	20.6	20.6	20.6	65	10.7	1	3	248	0.00	30.043 
11:35	21.0	21.0	21.0	64	10.8	1	3	248	0.00	30.043 
11:40	21.1	21.1	21.1	63	10.5	0	2	248	0.00	30.043 
11:45	21.3	21.3	21.3	63	10.7	1	3	248	0.00	30.034 
11:50	21.4	21.4	21.4	63	10.8	1	3	248	0.00	30.034 
11:55	21.4	21.4	21.4	62	10.4	0	2	248	0.00	30.034 
12:00	21.6	21.6	21.6	62	10.6	0	2	248	0.00	30.026 
12:05	21.9	21.9	21.9	62	10.9	1	3	338	0.00	30.026 
12:10	22.2	22.2	22.2	62	11.2	1	4	248	0.00	30.026 
12:15	22.4	22.4	22.4	61	11.0	0	1	248	0.00	30.015 
12:20	22.4	22.4	22.4	61	11.0	0	3	248	0.00	30.015 
12:25	22.5	22.5	22.5	60	10.7	0	2	338	0.00	30.015 
12:30	22.9	22.9	22.9	58	10.4	0	2	270	0.00	30.000 
12:35	23.3	23.3	23.3	58	10.7	1	3	270	0.00	30.000 
12:40	23.5	23.5	23.5	58	10.9	0	2	338	0.00	30.000 
12:45	23.8	23.8	23.8	57	10.8	1	3	248	0.00	29.991 
12:50	23.8	23.8	23.8	57	10.8	0	2	248	0.00	29.991 
12:55	24.1	24.1	24.1	56	10.7	1	3	248	0.00	29.991 
13:00	24.4	24.4	24.4	56	11.0	0	2	248	0.00	29.984 
13:05	24.5	24.5	24.5	55	10.7	0	2	248	0.00	29.984 
13:10	24.7	24.7	24.7	55	10.9	1	5	248	0.00	29.984 
13:15	24.8	24.8	24.8	55	11.0	0	2	248	0.00	29.975 
13:20	24.8	24.8	24.8	55	11.0	0	2	248	0.00	29.975 
13:25	25.1	25.1	25.1	55	11.2	0	2	248	0.00	29.975 
13:30	25.3	25.3	25.3	54	11.0	0	2	248	0.00	29.967 
13:35	25.4	25.4	25.4	52	10.3	1	3	248	0.00	29.967 
13:40	25.7	25.7	25.7	53	11.0	0	2	68	0.00	29.967 
13:45	25.7	25.7	25.7	52	10.5	0	1	68	0.00	29.959 
13:50	26.0	26.0	26.0	52	10.8	1	2	248	0.00	29.959 
13:55	26.3	26.3	26.3	51	10.7	1	2	248	0.00	29.959 
14:00	26.4	26.4	26.4	51	10.8	1	2	338	0.00	29.950 
14:05	26.3	26.3	26.3	52	11.1	0	2	338	0.00	29.950 
14:10	26.4	26.4	26.4	52	11.2	0	2	338	0.00	29.950 
14:15	26.6	26.6	26.6	51	10.9	0	1	338	0.00	29.942 
14:20	26.7	26.7	26.7	51	11.0	1	2	338	0.00	29.942 
14:25	27.2	27.2	27.2	51	11.5	0	3	338	0.00	29.942 
14:30	27.3	27.3	27.3	51	11.6	0	2	338	0.00	29.940 
14:35	27.6	27.6	27.6	50	11.4	1	3	248	0.00	29.940 
14:40	27.8	27.8	27.8	49	11.2	1	2	248	0.00	29.940 
14:45	27.5	27.5	27.5	48	10.4	0	2	248	0.00	29.935 
14:50	27.3	27.3	27.3	49	10.7	0	1	248	0.00	29.935 
14:55	27.5	27.5	27.5	49	10.9	1	3	248	0.00	29.935 
15:00	27.5	27.5	27.5	48	10.4	0	2	248	0.00	29.932 
15:05	27.8	27.8	27.8	47	10.2	1	3	248	0.00	29.932 
15:10	27.9	27.9	27.9	47	10.3	0	3	248	0.00	29.932 
15:15	27.9	27.9	27.9	47	10.3	1	4	248	0.00	29.933 
15:20	28.4	28.4	28.4	46	10.3	1	3	225	0.00	29.933 
15:25	28.4	28.4	28.4	46	10.3	0	2	248	0.00	29.933 
15:30	28.5	28.5	28.5	46	10.4	1	5	248	0.00	29.931 
15:35	28.7	28.7	28.7	45	10.1	0	1	248	0.00	29.931 
15:40	29.0	29.0	29.0	46	10.8	0	2	248	0.00	29.931 
15:45	29.0	29.0	29.0	44	9.8	0	1	248	0.00	29.930 
15:50	29.3	29.3	29.3	44	10.1	0	2	248	0.00	29.930 
15:55	29.3	29.3	29.3	44	10.1	0	2	248	0.00	29.930 
16:00	29.1	29.1	29.1	44	9.9	0	2	248	0.00	29.926 
16:05	28.8	28.8	28.8	45	10.2	0	2	248	0.00	29.926 
16:10	28.8	28.8	28.8	46	10.7	0	2	248	0.00	29.926 
16:15	28.8	28.8	28.8	46	10.7	1	3	248	0.00	29.930 
16:20	28.7	28.7	28.7	47	11.0	0	2	248	0.00	29.930 
16:25	28.7	28.7	28.7	47	11.0	0	2	248	0.00	29.930 
16:30	28.5	28.5	28.5	48	11.3	0	1	248	0.00	29.919 
16:35	28.4	28.4	28.4	48	11.2	0	1	248	0.00	29.919 
16:40	28.4	28.4	28.4	49	11.7	0	0	---	0.00	29.919 
16:45	28.2	28.2	28.2	50	12.0	0	1	248	0.00	29.918 
16:50	28.2	28.2	28.2	50	12.0	0	1	248	0.00	29.918 
16:55	28.2	28.2	28.2	51	12.4	0	2	248	0.00	29.918 
17:00	28.2	28.2	28.2	51	12.4	0	2	248	0.00	29.918 
17:05	28.2	28.2	28.2	51	12.4	0	1	248	0.00	29.918 
17:10	28.1	28.1	28.1	51	12.3	0	1	248	0.00	29.918 
17:15	28.2	28.2	28.2	52	12.9	0	2	248	0.00	29.916 
17:20	28.1	28.1	28.1	52	12.8	0	2	248	0.00	29.916 
17:25	28.1	28.1	28.1	53	13.2	0	1	248	0.00	29.916 
17:30	27.9	27.9	27.9	54	13.4	0	1	248	0.00	29.916 
17:35	27.6	27.6	27.6	54	13.2	0	1	248	0.00	29.916 
17:40	27.5	27.5	27.5	55	13.5	0	0	---	0.00	29.916 
17:45	27.3	27.3	27.3	57	14.1	0	0	---	0.00	29.913 
17:50	27.2	27.2	27.2	57	14.0	0	0	---	0.00	29.913 
17:55	26.9	26.9	26.9	58	14.1	0	0	---	0.00	29.913 
18:00	26.9	26.9	26.9	58	14.1	0	0	---	0.00	29.909 
18:05	26.7	26.7	26.7	59	14.3	0	0	---	0.00	29.909 
18:10	26.7	26.7	26.7	59	14.3	0	0	---	0.00	29.909 
18:15	26.7	26.7	26.7	59	14.3	0	0	---	0.00	29.905 
18:20	26.6	26.6	26.6	60	14.6	0	0	---	0.00	29.905 
18:25	26.6	26.6	26.6	61	15.0	0	0	---	0.00	29.905 
18:30	26.4	26.4	26.4	61	14.8	0	0	---	0.00	29.903 
18:35	26.3	26.3	26.3	62	15.1	0	0	---	0.00	29.903 
18:40	26.1	26.1	26.1	62	14.9	0	0	---	0.00	29.903 
18:45	25.8	25.8	25.8	62	14.6	0	0	---	0.00	29.898 
18:50	25.7	25.7	25.7	63	14.9	0	0	---	0.00	29.898 
18:55	25.6	25.6	25.6	63	14.8	0	0	---	0.00	29.898 
19:00	25.4	25.4	25.4	64	14.9	0	0	---	0.00	29.898 
19:05	25.1	25.1	25.1	64	14.7	0	0	---	0.00	29.898 
19:10	25.0	25.0	25.0	65	14.9	0	0	---	0.00	29.898 
19:15	24.8	24.8	24.8	65	14.7	0	0	---	0.00	29.894 
19:20	24.7	24.7	24.7	65	14.6	0	0	---	0.00	29.894 
19:25	24.5	24.5	24.5	67	15.1	0	0	---	0.00	29.894 
19:30	24.4	24.4	24.4	67	15.0	0	0	---	0.00	29.891 
19:35	24.4	24.4	24.4	68	15.4	0	0	---	0.00	29.891 
19:40	24.4	24.4	24.4	68	15.4	0	0	---	0.00	29.891 
19:45	24.4	24.4	24.4	69	15.7	0	0	---	0.00	29.883 
19:50	24.5	24.5	24.5	68	15.5	0	0	---	0.00	29.883 
19:55	24.5	24.5	24.5	69	15.8	0	0	---	0.00	29.883 
20:00	24.7	24.7	24.7	69	16.0	0	0	---	0.00	29.883 
20:05	24.7	24.7	24.7	69	16.0	0	0	---	0.00	29.883 
20:10	24.7	24.7	24.7	69	16.0	0	0	---	0.00	29.883 
20:15	24.8	24.8	24.8	69	16.1	0	0	---	0.00	29.879 
20:20	24.8	24.8	24.8	69	16.1	0	0	---	0.00	29.879 
20:25	24.8	24.8	24.8	69	16.1	0	0	---	0.00	29.879 
20:30	24.8	24.8	24.8	69	16.1	0	0	---	0.00	29.876 
20:35	24.8	24.8	24.8	69	16.1	0	0	---	0.00	29.876 
20:40	24.7	24.7	24.7	69	16.0	0	0	---	0.00	29.876 
20:45	24.5	24.5	24.5	69	15.8	0	0	---	0.00	29.870 
20:50	24.4	24.4	24.4	69	15.7	0	0	---	0.00	29.870 
20:55	24.2	24.2	24.2	69	15.5	0	0	---	0.00	29.870 
21:00	24.1	24.1	24.1	69	15.4	0	0	---	0.00	29.862 
21:05	23.9	23.9	23.9	69	15.2	0	0	---	0.00	29.862 
21:10	23.8	23.8	23.8	70	15.5	0	0	---	0.00	29.862 
21:15	23.6	23.6	23.6	71	15.6	0	0	---	0.00	29.857 
21:20	23.6	23.6	23.6	71	15.6	0	0	---	0.00	29.857 
21:25	23.6	23.6	23.6	71	15.6	0	0	---	0.00	29.857 
21:30	23.6	23.6	23.6	71	15.6	0	0	---	0.00	29.856 
21:35	23.5	23.5	23.5	72	15.8	0	0	---	0.00	29.856 
21:40	23.5	23.5	23.5	72	15.8	0	0	---	0.00	29.856 
21:45	23.5	23.5	23.5	73	16.1	0	0	---	0.00	29.849 
21:50	23.5	23.5	23.5	73	16.1	0	0	---	0.00	29.849 
21:55	23.6	23.6	23.6	73	16.2	0	0	---	0.00	29.849 
22:00	23.8	23.8	23.8	73	16.4	0	0	---	0.00	29.842 
22:05	23.9	23.9	23.9	73	16.5	0	0	---	0.00	29.842 
22:10	24.1	24.1	24.1	73	16.7	0	0	---	0.00	29.842 
22:15	24.2	24.2	24.2	73	16.8	0	0	---	0.00	29.839 
22:20	24.2	24.2	24.2	73	16.8	0	0	---	0.00	29.839 
22:25	24.4	24.4	24.4	72	16.7	0	0	---	0.00	29.839 
22:30	24.4	24.4	24.4	72	16.7	0	0	---	0.00	29.841 
22:35	24.4	24.4	24.4	73	17.0	0	0	---	0.00	29.841 
22:40	24.4	24.4	24.4	73	17.0	0	0	---	0.00	29.841 
22:45	24.4	24.4	24.4	73	17.0	0	0	---	0.00	29.838 
22:50	24.4	24.4	24.4	73	17.0	0	0	---	0.00	29.838 
22:55	24.5	24.5	24.5	72	16.8	0	0	---	0.00	29.838 
23:00	24.5	24.5	24.5	72	16.8	0	2	248	0.00	29.824 
23:05	24.7	24.7	24.7	72	17.0	0	1	248	0.00	29.824 
23:10	24.7	24.7	24.7	72	17.0	0	0	---	0.00	29.824 
23:15	24.5	24.5	24.5	72	16.8	0	0	---	0.00	29.826 
23:20	24.5	24.5	24.5	72	16.8	0	0	---	0.00	29.826 
23:25	24.2	24.2	24.2	72	16.5	0	0	---	0.00	29.826 
23:30	24.1	24.1	24.1	72	16.4	0	0	---	0.00	29.821 
23:35	23.9	23.9	23.9	73	16.5	0	0	---	0.00	29.821 
23:40	23.8	23.8	23.8	73	16.4	0	0	---	0.00	29.821 
23:45	23.6	23.6	23.6	73	16.2	0	0	---	0.00	29.818 
23:50	23.5	23.5	23.5	73	16.1	0	0	---	0.00	29.818 
23:55	23.3	23.3	23.3	74	16.3	0	0	---	0.00	29.818 

CoCoRaHS
IN-AL-39
A2 Web Hosting
Creative Commons License
GoDaddy
search engine by freefind advanced

loaded 2018-11-17 11:57:42 • last modified 2010-11-18 10:43:29
Privacy PolicyDisclaimer
• wx.awcolley.com is powered by PmWiki v.2002016 •
• all content (unless otherwise noted) © 2018 A W Colley